sensor_id;sensor_type;location;lat;lon;timestamp;P1;durP1;ratioP1;P2;durP2;ratioP2
62679;SDS011;68213;40.528;44.712;2023-04-20T00:00:42;0.75;;;0.70;;
62679;SDS011;68213;40.528;44.712;2023-04-20T00:01:44;3.63;;;0.88;;
62679;SDS011;68213;40.528;44.712;2023-04-20T00:02:46;1.85;;;0.65;;
62679;SDS011;68213;40.528;44.712;2023-04-20T00:03:47;2.60;;;0.82;;
62679;SDS011;68213;40.528;44.712;2023-04-20T00:04:47;3.88;;;0.90;;
62679;SDS011;68213;40.528;44.712;2023-04-20T00:05:48;3.30;;;0.75;;
62679;SDS011;68213;40.528;44.712;2023-04-20T00:06:49;4.93;;;0.70;;
62679;SDS011;68213;40.528;44.712;2023-04-20T00:07:51;3.35;;;0.82;;
62679;SDS011;68213;40.528;44.712;2023-04-20T00:08:53;4.30;;;1.00;;
62679;SDS011;68213;40.528;44.712;2023-04-20T00:09:55;2.15;;;0.85;;
62679;SDS011;68213;40.528;44.712;2023-04-20T00:10:55;1.80;;;0.80;;
62679;SDS011;68213;40.528;44.712;2023-04-20T00:11:56;1.73;;;0.80;;
62679;SDS011;68213;40.528;44.712;2023-04-20T00:12:57;1.77;;;0.88;;
62679;SDS011;68213;40.528;44.712;2023-04-20T00:13:57;1.42;;;0.60;;
62679;SDS011;68213;40.528;44.712;2023-04-20T00:14:58;5.38;;;0.90;;
62679;SDS011;68213;40.528;44.712;2023-04-20T00:15:59;2.38;;;0.70;;
62679;SDS011;68213;40.528;44.712;2023-04-20T00:17:00;2.45;;;0.80;;
62679;SDS011;68213;40.528;44.712;2023-04-20T00:18:01;1.48;;;0.82;;
62679;SDS011;68213;40.528;44.712;2023-04-20T00:19:02;3.33;;;1.23;;
62679;SDS011;68213;40.528;44.712;2023-04-20T00:20:03;2.85;;;0.88;;
62679;SDS011;68213;40.528;44.712;2023-04-20T00:21:04;1.83;;;0.75;;
62679;SDS011;68213;40.528;44.712;2023-04-20T00:22:05;2.10;;;0.85;;
62679;SDS011;68213;40.528;44.712;2023-04-20T00:23:06;3.70;;;1.20;;
62679;SDS011;68213;40.528;44.712;2023-04-20T00:24:07;1.23;;;0.77;;
62679;SDS011;68213;40.528;44.712;2023-04-20T00:25:08;3.05;;;1.23;;
62679;SDS011;68213;40.528;44.712;2023-04-20T00:26:10;3.20;;;0.90;;
62679;SDS011;68213;40.528;44.712;2023-04-20T00:27:10;1.70;;;0.75;;
62679;SDS011;68213;40.528;44.712;2023-04-20T00:28:11;3.95;;;1.10;;
62679;SDS011;68213;40.528;44.712;2023-04-20T00:29:12;1.98;;;0.90;;
62679;SDS011;68213;40.528;44.712;2023-04-20T00:30:13;1.60;;;0.70;;
62679;SDS011;68213;40.528;44.712;2023-04-20T00:31:14;5.20;;;0.98;;
62679;SDS011;68213;40.528;44.712;2023-04-20T00:32:14;2.25;;;0.88;;
62679;SDS011;68213;40.528;44.712;2023-04-20T00:33:15;5.05;;;1.20;;
62679;SDS011;68213;40.528;44.712;2023-04-20T00:34:16;4.03;;;1.00;;
62679;SDS011;68213;40.528;44.712;2023-04-20T00:35:17;4.15;;;0.82;;
62679;SDS011;68213;40.528;44.712;2023-04-20T00:36:17;3.85;;;0.88;;
62679;SDS011;68213;40.528;44.712;2023-04-20T00:37:18;2.22;;;0.88;;
62679;SDS011;68213;40.528;44.712;2023-04-20T00:38:19;2.85;;;0.95;;
62679;SDS011;68213;40.528;44.712;2023-04-20T00:39:23;4.32;;;1.00;;
62679;SDS011;68213;40.528;44.712;2023-04-20T00:40:24;1.38;;;0.90;;
62679;SDS011;68213;40.528;44.712;2023-04-20T00:41:24;5.93;;;0.90;;
62679;SDS011;68213;40.528;44.712;2023-04-20T00:42:25;2.90;;;0.70;;
62679;SDS011;68213;40.528;44.712;2023-04-20T00:43:26;2.53;;;0.75;;
62679;SDS011;68213;40.528;44.712;2023-04-20T00:44:27;2.83;;;0.88;;
62679;SDS011;68213;40.528;44.712;2023-04-20T00:45:29;2.05;;;0.98;;
62679;SDS011;68213;40.528;44.712;2023-04-20T00:46:30;5.88;;;0.82;;
62679;SDS011;68213;40.528;44.712;2023-04-20T00:47:30;2.67;;;0.80;;
62679;SDS011;68213;40.528;44.712;2023-04-20T00:48:31;2.30;;;0.80;;
62679;SDS011;68213;40.528;44.712;2023-04-20T00:49:32;4.75;;;1.55;;
62679;SDS011;68213;40.528;44.712;2023-04-20T00:50:33;1.83;;;0.70;;
62679;SDS011;68213;40.528;44.712;2023-04-20T00:51:34;1.55;;;0.90;;
62679;SDS011;68213;40.528;44.712;2023-04-20T00:52:35;1.33;;;0.77;;
62679;SDS011;68213;40.528;44.712;2023-04-20T00:53:36;3.90;;;0.70;;
62679;SDS011;68213;40.528;44.712;2023-04-20T00:54:37;2.55;;;0.73;;
62679;SDS011;68213;40.528;44.712;2023-04-20T00:55:38;3.90;;;1.15;;
62679;SDS011;68213;40.528;44.712;2023-04-20T00:56:42;1.75;;;0.85;;
62679;SDS011;68213;40.528;44.712;2023-04-20T00:57:43;1.52;;;0.70;;
62679;SDS011;68213;40.528;44.712;2023-04-20T00:58:44;4.95;;;1.20;;
62679;SDS011;68213;40.528;44.712;2023-04-20T00:59:45;2.00;;;0.82;;
62679;SDS011;68213;40.528;44.712;2023-04-20T01:00:46;1.05;;;0.70;;
62679;SDS011;68213;40.528;44.712;2023-04-20T01:01:47;4.35;;;0.88;;
62679;SDS011;68213;40.528;44.712;2023-04-20T01:02:48;1.83;;;0.80;;
62679;SDS011;68213;40.528;44.712;2023-04-20T01:03:49;2.30;;;0.73;;
62679;SDS011;68213;40.528;44.712;2023-04-20T01:04:50;3.47;;;0.80;;
62679;SDS011;68213;40.528;44.712;2023-04-20T01:05:51;1.38;;;0.90;;
62679;SDS011;68213;40.528;44.712;2023-04-20T01:06:52;2.38;;;0.80;;
62679;SDS011;68213;40.528;44.712;2023-04-20T01:07:53;4.00;;;0.98;;
62679;SDS011;68213;40.528;44.712;2023-04-20T01:08:53;4.70;;;0.82;;
62679;SDS011;68213;40.528;44.712;2023-04-20T01:09:54;3.65;;;0.85;;
62679;SDS011;68213;40.528;44.712;2023-04-20T01:10:55;1.10;;;0.80;;
62679;SDS011;68213;40.528;44.712;2023-04-20T01:11:56;2.10;;;0.63;;
62679;SDS011;68213;40.528;44.712;2023-04-20T01:12:57;1.60;;;0.80;;
62679;SDS011;68213;40.528;44.712;2023-04-20T01:13:58;2.15;;;0.98;;
62679;SDS011;68213;40.528;44.712;2023-04-20T01:14:58;2.83;;;1.10;;
62679;SDS011;68213;40.528;44.712;2023-04-20T01:15:59;3.63;;;0.88;;
62679;SDS011;68213;40.528;44.712;2023-04-20T01:17:00;2.13;;;1.02;;
62679;SDS011;68213;40.528;44.712;2023-04-20T01:18:03;2.05;;;0.63;;
62679;SDS011;68213;40.528;44.712;2023-04-20T01:19:05;4.68;;;1.17;;
62679;SDS011;68213;40.528;44.712;2023-04-20T01:20:06;2.42;;;0.93;;
62679;SDS011;68213;40.528;44.712;2023-04-20T01:21:12;1.48;;;0.85;;
62679;SDS011;68213;40.528;44.712;2023-04-20T01:22:17;1.92;;;0.75;;
62679;SDS011;68213;40.528;44.712;2023-04-20T01:23:19;3.88;;;0.85;;
62679;SDS011;68213;40.528;44.712;2023-04-20T01:24:20;2.90;;;0.80;;
62679;SDS011;68213;40.528;44.712;2023-04-20T01:25:20;1.75;;;0.80;;
62679;SDS011;68213;40.528;44.712;2023-04-20T01:26:24;2.20;;;0.73;;
62679;SDS011;68213;40.528;44.712;2023-04-20T01:27:28;3.70;;;0.80;;
62679;SDS011;68213;40.528;44.712;2023-04-20T01:28:28;3.22;;;0.90;;
62679;SDS011;68213;40.528;44.712;2023-04-20T01:29:30;3.00;;;0.90;;
62679;SDS011;68213;40.528;44.712;2023-04-20T01:30:31;2.03;;;0.85;;
62679;SDS011;68213;40.528;44.712;2023-04-20T01:31:31;2.55;;;1.00;;
62679;SDS011;68213;40.528;44.712;2023-04-20T01:32:33;4.93;;;1.17;;
62679;SDS011;68213;40.528;44.712;2023-04-20T01:33:34;2.30;;;1.00;;
62679;SDS011;68213;40.528;44.712;2023-04-20T01:34:37;4.00;;;1.15;;
62679;SDS011;68213;40.528;44.712;2023-04-20T01:35:40;2.63;;;1.02;;
62679;SDS011;68213;40.528;44.712;2023-04-20T01:36:42;2.38;;;0.90;;
62679;SDS011;68213;40.528;44.712;2023-04-20T01:38:59;4.35;;;1.30;;
62679;SDS011;68213;40.528;44.712;2023-04-20T01:40:00;4.13;;;1.63;;
62679;SDS011;68213;40.528;44.712;2023-04-20T01:41:01;7.38;;;1.65;;
62679;SDS011;68213;40.528;44.712;2023-04-20T01:42:04;6.20;;;1.10;;
62679;SDS011;68213;40.528;44.712;2023-04-20T01:43:05;2.25;;;1.10;;
62679;SDS011;68213;40.528;44.712;2023-04-20T01:44:06;3.67;;;1.10;;
62679;SDS011;68213;40.528;44.712;2023-04-20T01:45:06;5.18;;;1.20;;
62679;SDS011;68213;40.528;44.712;2023-04-20T01:46:08;3.30;;;1.10;;
62679;SDS011;68213;40.528;44.712;2023-04-20T01:47:08;3.10;;;1.20;;
62679;SDS011;68213;40.528;44.712;2023-04-20T01:48:09;5.82;;;1.13;;
62679;SDS011;68213;40.528;44.712;2023-04-20T01:49:10;1.95;;;0.90;;
62679;SDS011;68213;40.528;44.712;2023-04-20T01:50:10;2.35;;;1.00;;
62679;SDS011;68213;40.528;44.712;2023-04-20T01:51:11;1.08;;;0.82;;
62679;SDS011;68213;40.528;44.712;2023-04-20T01:52:12;4.90;;;1.25;;
62679;SDS011;68213;40.528;44.712;2023-04-20T01:53:12;1.60;;;0.82;;
62679;SDS011;68213;40.528;44.712;2023-04-20T01:54:13;1.98;;;1.08;;
62679;SDS011;68213;40.528;44.712;2023-04-20T01:55:15;5.30;;;1.15;;
62679;SDS011;68213;40.528;44.712;2023-04-20T01:56:15;3.50;;;0.90;;
62679;SDS011;68213;40.528;44.712;2023-04-20T01:57:16;2.63;;;1.20;;
62679;SDS011;68213;40.528;44.712;2023-04-20T01:58:17;2.92;;;1.13;;
62679;SDS011;68213;40.528;44.712;2023-04-20T01:59:17;2.53;;;1.00;;
62679;SDS011;68213;40.528;44.712;2023-04-20T02:00:19;2.40;;;0.90;;
62679;SDS011;68213;40.528;44.712;2023-04-20T02:01:22;1.48;;;0.90;;
62679;SDS011;68213;40.528;44.712;2023-04-20T02:02:22;3.38;;;1.20;;
62679;SDS011;68213;40.528;44.712;2023-04-20T02:03:23;4.95;;;1.17;;
62679;SDS011;68213;40.528;44.712;2023-04-20T02:04:24;2.25;;;1.20;;
62679;SDS011;68213;40.528;44.712;2023-04-20T02:05:28;4.18;;;1.10;;
62679;SDS011;68213;40.528;44.712;2023-04-20T02:06:28;3.05;;;1.20;;
62679;SDS011;68213;40.528;44.712;2023-04-20T02:07:30;4.43;;;1.10;;
62679;SDS011;68213;40.528;44.712;2023-04-20T02:08:33;6.53;;;1.10;;
62679;SDS011;68213;40.528;44.712;2023-04-20T02:09:34;6.68;;;1.17;;
62679;SDS011;68213;40.528;44.712;2023-04-20T02:10:35;1.45;;;1.00;;
62679;SDS011;68213;40.528;44.712;2023-04-20T02:11:36;3.42;;;1.30;;
62679;SDS011;68213;40.528;44.712;2023-04-20T02:12:36;4.43;;;1.05;;
62679;SDS011;68213;40.528;44.712;2023-04-20T02:13:37;2.65;;;0.90;;
62679;SDS011;68213;40.528;44.712;2023-04-20T02:14:38;3.33;;;1.10;;
62679;SDS011;68213;40.528;44.712;2023-04-20T02:15:39;1.98;;;0.90;;
62679;SDS011;68213;40.528;44.712;2023-04-20T02:16:42;1.67;;;0.98;;
62679;SDS011;68213;40.528;44.712;2023-04-20T02:17:45;3.08;;;1.23;;
62679;SDS011;68213;40.528;44.712;2023-04-20T02:18:51;1.42;;;0.90;;
62679;SDS011;68213;40.528;44.712;2023-04-20T02:19:54;3.58;;;0.95;;
62679;SDS011;68213;40.528;44.712;2023-04-20T02:20:57;2.55;;;1.15;;
62679;SDS011;68213;40.528;44.712;2023-04-20T02:21:58;2.92;;;0.90;;
62679;SDS011;68213;40.528;44.712;2023-04-20T02:22:58;2.80;;;1.00;;
62679;SDS011;68213;40.528;44.712;2023-04-20T02:23:59;3.85;;;1.00;;
62679;SDS011;68213;40.528;44.712;2023-04-20T02:25:01;1.85;;;1.05;;
62679;SDS011;68213;40.528;44.712;2023-04-20T02:26:03;4.88;;;1.10;;
62679;SDS011;68213;40.528;44.712;2023-04-20T02:27:04;2.63;;;1.20;;
62679;SDS011;68213;40.528;44.712;2023-04-20T02:28:05;6.05;;;1.27;;
62679;SDS011;68213;40.528;44.712;2023-04-20T02:29:06;7.40;;;1.05;;
62679;SDS011;68213;40.528;44.712;2023-04-20T02:30:07;2.78;;;0.90;;
62679;SDS011;68213;40.528;44.712;2023-04-20T02:31:08;2.35;;;0.98;;
62679;SDS011;68213;40.528;44.712;2023-04-20T02:32:08;1.33;;;0.90;;
62679;SDS011;68213;40.528;44.712;2023-04-20T02:33:09;2.20;;;1.00;;
62679;SDS011;68213;40.528;44.712;2023-04-20T02:34:10;2.22;;;0.98;;
62679;SDS011;68213;40.528;44.712;2023-04-20T02:35:11;5.13;;;1.02;;
62679;SDS011;68213;40.528;44.712;2023-04-20T02:36:12;1.75;;;1.10;;
62679;SDS011;68213;40.528;44.712;2023-04-20T02:37:12;4.03;;;1.20;;
62679;SDS011;68213;40.528;44.712;2023-04-20T02:38:16;6.80;;;1.15;;
62679;SDS011;68213;40.528;44.712;2023-04-20T02:39:16;4.78;;;1.23;;
62679;SDS011;68213;40.528;44.712;2023-04-20T02:40:17;2.42;;;0.88;;
62679;SDS011;68213;40.528;44.712;2023-04-20T02:41:18;2.70;;;1.00;;
62679;SDS011;68213;40.528;44.712;2023-04-20T02:42:19;1.65;;;0.80;;
62679;SDS011;68213;40.528;44.712;2023-04-20T02:43:19;4.03;;;0.90;;
62679;SDS011;68213;40.528;44.712;2023-04-20T02:44:20;2.65;;;0.80;;
62679;SDS011;68213;40.528;44.712;2023-04-20T02:45:21;2.10;;;1.08;;
62679;SDS011;68213;40.528;44.712;2023-04-20T02:46:22;2.03;;;1.00;;
62679;SDS011;68213;40.528;44.712;2023-04-20T02:47:22;6.30;;;0.98;;
62679;SDS011;68213;40.528;44.712;2023-04-20T02:48:23;2.60;;;1.02;;
62679;SDS011;68213;40.528;44.712;2023-04-20T02:49:24;1.70;;;0.82;;
62679;SDS011;68213;40.528;44.712;2023-04-20T02:50:24;3.92;;;1.20;;
62679;SDS011;68213;40.528;44.712;2023-04-20T02:51:25;2.63;;;0.85;;
62679;SDS011;68213;40.528;44.712;2023-04-20T02:52:26;2.08;;;0.90;;
62679;SDS011;68213;40.528;44.712;2023-04-20T02:53:27;2.08;;;1.00;;
62679;SDS011;68213;40.528;44.712;2023-04-20T02:54:27;1.92;;;1.10;;
62679;SDS011;68213;40.528;44.712;2023-04-20T02:55:28;5.00;;;1.10;;
62679;SDS011;68213;40.528;44.712;2023-04-20T02:56:29;2.67;;;1.20;;
62679;SDS011;68213;40.528;44.712;2023-04-20T02:57:30;4.40;;;1.20;;
62679;SDS011;68213;40.528;44.712;2023-04-20T02:58:30;4.80;;;1.00;;
62679;SDS011;68213;40.528;44.712;2023-04-20T02:59:31;4.50;;;1.25;;
62679;SDS011;68213;40.528;44.712;2023-04-20T03:00:32;5.65;;;1.15;;
62679;SDS011;68213;40.528;44.712;2023-04-20T03:01:33;1.23;;;0.90;;
62679;SDS011;68213;40.528;44.712;2023-04-20T03:02:33;2.28;;;1.00;;
62679;SDS011;68213;40.528;44.712;2023-04-20T03:03:36;2.33;;;1.05;;
62679;SDS011;68213;40.528;44.712;2023-04-20T03:04:36;5.30;;;1.10;;
62679;SDS011;68213;40.528;44.712;2023-04-20T03:05:40;2.17;;;1.20;;
62679;SDS011;68213;40.528;44.712;2023-04-20T03:06:41;14.90;;;1.40;;
62679;SDS011;68213;40.528;44.712;2023-04-20T03:07:42;3.53;;;1.20;;
62679;SDS011;68213;40.528;44.712;2023-04-20T03:08:43;3.63;;;1.08;;
62679;SDS011;68213;40.528;44.712;2023-04-20T03:09:44;5.32;;;1.00;;
62679;SDS011;68213;40.528;44.712;2023-04-20T03:10:45;1.55;;;1.10;;
62679;SDS011;68213;40.528;44.712;2023-04-20T03:11:46;4.78;;;1.27;;
62679;SDS011;68213;40.528;44.712;2023-04-20T03:12:46;4.50;;;1.35;;
62679;SDS011;68213;40.528;44.712;2023-04-20T03:13:47;4.90;;;1.10;;
62679;SDS011;68213;40.528;44.712;2023-04-20T03:14:48;4.72;;;1.13;;
62679;SDS011;68213;40.528;44.712;2023-04-20T03:15:49;3.03;;;1.05;;
62679;SDS011;68213;40.528;44.712;2023-04-20T03:16:49;4.03;;;1.13;;
62679;SDS011;68213;40.528;44.712;2023-04-20T03:17:50;1.58;;;0.93;;
62679;SDS011;68213;40.528;44.712;2023-04-20T03:18:53;3.47;;;1.20;;
62679;SDS011;68213;40.528;44.712;2023-04-20T03:19:54;2.90;;;1.20;;
62679;SDS011;68213;40.528;44.712;2023-04-20T03:20:55;2.83;;;1.10;;
62679;SDS011;68213;40.528;44.712;2023-04-20T03:21:56;2.05;;;1.15;;
62679;SDS011;68213;40.528;44.712;2023-04-20T03:22:57;1.90;;;1.20;;
62679;SDS011;68213;40.528;44.712;2023-04-20T03:23:58;3.70;;;1.20;;
62679;SDS011;68213;40.528;44.712;2023-04-20T03:24:59;5.50;;;1.10;;
62679;SDS011;68213;40.528;44.712;2023-04-20T03:26:01;3.08;;;1.10;;
62679;SDS011;68213;40.528;44.712;2023-04-20T03:27:02;4.45;;;1.27;;
62679;SDS011;68213;40.528;44.712;2023-04-20T03:28:03;1.55;;;0.90;;
62679;SDS011;68213;40.528;44.712;2023-04-20T03:29:03;3.92;;;1.15;;
62679;SDS011;68213;40.528;44.712;2023-04-20T03:30:04;2.40;;;1.10;;
62679;SDS011;68213;40.528;44.712;2023-04-20T03:31:06;4.45;;;1.17;;
62679;SDS011;68213;40.528;44.712;2023-04-20T03:32:07;3.47;;;1.40;;
62679;SDS011;68213;40.528;44.712;2023-04-20T03:33:07;4.18;;;1.33;;
62679;SDS011;68213;40.528;44.712;2023-04-20T03:34:08;2.83;;;1.10;;
62679;SDS011;68213;40.528;44.712;2023-04-20T03:35:09;1.85;;;1.10;;
62679;SDS011;68213;40.528;44.712;2023-04-20T03:36:10;4.45;;;1.27;;
62679;SDS011;68213;40.528;44.712;2023-04-20T03:37:10;4.75;;;1.20;;
62679;SDS011;68213;40.528;44.712;2023-04-20T03:38:11;3.70;;;1.20;;
62679;SDS011;68213;40.528;44.712;2023-04-20T03:39:12;3.95;;;1.20;;
62679;SDS011;68213;40.528;44.712;2023-04-20T03:40:13;2.38;;;0.88;;
62679;SDS011;68213;40.528;44.712;2023-04-20T03:41:16;2.78;;;1.00;;
62679;SDS011;68213;40.528;44.712;2023-04-20T03:42:16;2.97;;;1.30;;
62679;SDS011;68213;40.528;44.712;2023-04-20T03:43:18;1.73;;;1.00;;
62679;SDS011;68213;40.528;44.712;2023-04-20T03:44:19;4.63;;;1.17;;
62679;SDS011;68213;40.528;44.712;2023-04-20T03:45:20;2.58;;;1.23;;
62679;SDS011;68213;40.528;44.712;2023-04-20T03:46:20;1.90;;;1.00;;
62679;SDS011;68213;40.528;44.712;2023-04-20T03:47:21;4.25;;;1.60;;
62679;SDS011;68213;40.528;44.712;2023-04-20T03:48:22;3.78;;;1.25;;
62679;SDS011;68213;40.528;44.712;2023-04-20T03:49:23;2.90;;;0.98;;
62679;SDS011;68213;40.528;44.712;2023-04-20T03:50:24;4.90;;;1.10;;
62679;SDS011;68213;40.528;44.712;2023-04-20T03:51:25;2.78;;;1.23;;
62679;SDS011;68213;40.528;44.712;2023-04-20T03:52:26;3.90;;;1.15;;
62679;SDS011;68213;40.528;44.712;2023-04-20T03:53:29;1.63;;;1.00;;
62679;SDS011;68213;40.528;44.712;2023-04-20T03:54:33;4.28;;;1.00;;
62679;SDS011;68213;40.528;44.712;2023-04-20T03:55:33;2.60;;;0.98;;
62679;SDS011;68213;40.528;44.712;2023-04-20T03:56:34;5.40;;;1.40;;
62679;SDS011;68213;40.528;44.712;2023-04-20T03:57:36;3.15;;;1.15;;
62679;SDS011;68213;40.528;44.712;2023-04-20T03:58:37;3.42;;;1.27;;
62679;SDS011;68213;40.528;44.712;2023-04-20T03:59:37;6.05;;;1.33;;
62679;SDS011;68213;40.528;44.712;2023-04-20T04:00:38;2.78;;;1.15;;
62679;SDS011;68213;40.528;44.712;2023-04-20T04:01:39;4.25;;;1.17;;
62679;SDS011;68213;40.528;44.712;2023-04-20T04:02:40;2.53;;;1.02;;
62679;SDS011;68213;40.528;44.712;2023-04-20T04:03:43;2.65;;;1.20;;
62679;SDS011;68213;40.528;44.712;2023-04-20T04:04:44;6.85;;;1.33;;
62679;SDS011;68213;40.528;44.712;2023-04-20T04:05:45;2.45;;;1.05;;
62679;SDS011;68213;40.528;44.712;2023-04-20T04:06:46;6.05;;;1.25;;
62679;SDS011;68213;40.528;44.712;2023-04-20T04:07:46;3.33;;;1.27;;
62679;SDS011;68213;40.528;44.712;2023-04-20T04:08:47;1.77;;;1.05;;
62679;SDS011;68213;40.528;44.712;2023-04-20T04:09:48;3.25;;;1.10;;
62679;SDS011;68213;40.528;44.712;2023-04-20T04:10:48;1.65;;;1.02;;
62679;SDS011;68213;40.528;44.712;2023-04-20T04:11:50;2.95;;;1.10;;
62679;SDS011;68213;40.528;44.712;2023-04-20T04:12:50;4.72;;;1.30;;
62679;SDS011;68213;40.528;44.712;2023-04-20T04:13:51;2.42;;;0.95;;
62679;SDS011;68213;40.528;44.712;2023-04-20T04:14:52;2.53;;;1.25;;
62679;SDS011;68213;40.528;44.712;2023-04-20T04:15:52;1.45;;;1.10;;
62679;SDS011;68213;40.528;44.712;2023-04-20T04:16:53;5.22;;;1.10;;
62679;SDS011;68213;40.528;44.712;2023-04-20T04:17:54;2.10;;;0.90;;
62679;SDS011;68213;40.528;44.712;2023-04-20T04:18:55;3.45;;;0.90;;
62679;SDS011;68213;40.528;44.712;2023-04-20T04:19:56;4.72;;;0.85;;
62679;SDS011;68213;40.528;44.712;2023-04-20T04:20:57;3.30;;;0.85;;
62679;SDS011;68213;40.528;44.712;2023-04-20T04:22:02;3.28;;;1.10;;
62679;SDS011;68213;40.528;44.712;2023-04-20T04:23:03;3.40;;;1.20;;
62679;SDS011;68213;40.528;44.712;2023-04-20T04:24:03;4.20;;;1.20;;
62679;SDS011;68213;40.528;44.712;2023-04-20T04:25:04;4.20;;;0.93;;
62679;SDS011;68213;40.528;44.712;2023-04-20T04:26:06;3.85;;;1.10;;
62679;SDS011;68213;40.528;44.712;2023-04-20T04:27:06;4.55;;;1.17;;
62679;SDS011;68213;40.528;44.712;2023-04-20T04:28:07;2.15;;;1.20;;
62679;SDS011;68213;40.528;44.712;2023-04-20T04:29:08;3.13;;;1.38;;
62679;SDS011;68213;40.528;44.712;2023-04-20T04:30:09;5.82;;;1.33;;
62679;SDS011;68213;40.528;44.712;2023-04-20T04:31:11;2.13;;;1.02;;
62679;SDS011;68213;40.528;44.712;2023-04-20T04:32:12;3.95;;;1.33;;
62679;SDS011;68213;40.528;44.712;2023-04-20T04:33:15;4.53;;;1.10;;
62679;SDS011;68213;40.528;44.712;2023-04-20T04:34:18;6.38;;;1.10;;
62679;SDS011;68213;40.528;44.712;2023-04-20T04:35:19;4.15;;;1.00;;
62679;SDS011;68213;40.528;44.712;2023-04-20T04:36:20;1.98;;;1.15;;
62679;SDS011;68213;40.528;44.712;2023-04-20T04:37:25;4.30;;;1.13;;
62679;SDS011;68213;40.528;44.712;2023-04-20T04:38:28;4.97;;;1.20;;
62679;SDS011;68213;40.528;44.712;2023-04-20T04:39:30;5.82;;;1.88;;
62679;SDS011;68213;40.528;44.712;2023-04-20T04:40:31;7.22;;;1.92;;
62679;SDS011;68213;40.528;44.712;2023-04-20T04:41:32;2.85;;;0.88;;
62679;SDS011;68213;40.528;44.712;2023-04-20T04:42:34;2.63;;;1.00;;
62679;SDS011;68213;40.528;44.712;2023-04-20T04:43:35;3.00;;;1.10;;
62679;SDS011;68213;40.528;44.712;2023-04-20T04:44:36;2.08;;;1.00;;
62679;SDS011;68213;40.528;44.712;2023-04-20T04:45:38;4.93;;;1.23;;
62679;SDS011;68213;40.528;44.712;2023-04-20T04:46:42;3.83;;;1.02;;
62679;SDS011;68213;40.528;44.712;2023-04-20T04:47:46;2.28;;;0.90;;
62679;SDS011;68213;40.528;44.712;2023-04-20T04:48:47;2.65;;;1.08;;
62679;SDS011;68213;40.528;44.712;2023-04-20T04:49:48;4.05;;;0.88;;
62679;SDS011;68213;40.528;44.712;2023-04-20T04:50:49;3.80;;;1.00;;
62679;SDS011;68213;40.528;44.712;2023-04-20T04:51:50;5.10;;;1.33;;
62679;SDS011;68213;40.528;44.712;2023-04-20T04:52:50;3.72;;;1.23;;
62679;SDS011;68213;40.528;44.712;2023-04-20T04:53:51;3.47;;;1.00;;
62679;SDS011;68213;40.528;44.712;2023-04-20T04:54:52;3.95;;;1.02;;
62679;SDS011;68213;40.528;44.712;2023-04-20T04:55:53;5.70;;;1.55;;
62679;SDS011;68213;40.528;44.712;2023-04-20T04:56:53;4.32;;;1.13;;
62679;SDS011;68213;40.528;44.712;2023-04-20T04:57:54;2.45;;;1.20;;
62679;SDS011;68213;40.528;44.712;2023-04-20T04:58:55;8.52;;;1.27;;
62679;SDS011;68213;40.528;44.712;2023-04-20T04:59:55;4.07;;;1.25;;
62679;SDS011;68213;40.528;44.712;2023-04-20T05:00:58;4.30;;;1.40;;
62679;SDS011;68213;40.528;44.712;2023-04-20T05:01:58;2.83;;;1.40;;
62679;SDS011;68213;40.528;44.712;2023-04-20T05:02:59;3.90;;;1.38;;
62679;SDS011;68213;40.528;44.712;2023-04-20T05:04:00;2.47;;;1.30;;
62679;SDS011;68213;40.528;44.712;2023-04-20T05:05:00;2.80;;;1.02;;
62679;SDS011;68213;40.528;44.712;2023-04-20T05:06:01;3.50;;;1.38;;
62679;SDS011;68213;40.528;44.712;2023-04-20T05:07:02;5.78;;;1.42;;
62679;SDS011;68213;40.528;44.712;2023-04-20T05:08:03;3.72;;;1.35;;
62679;SDS011;68213;40.528;44.712;2023-04-20T05:09:04;2.05;;;1.10;;
62679;SDS011;68213;40.528;44.712;2023-04-20T05:10:05;4.55;;;1.17;;
62679;SDS011;68213;40.528;44.712;2023-04-20T05:11:07;4.50;;;1.40;;
62679;SDS011;68213;40.528;44.712;2023-04-20T05:12:07;2.58;;;1.30;;
62679;SDS011;68213;40.528;44.712;2023-04-20T05:13:08;3.45;;;1.25;;
62679;SDS011;68213;40.528;44.712;2023-04-20T05:14:09;4.30;;;1.50;;
62679;SDS011;68213;40.528;44.712;2023-04-20T05:15:10;6.03;;;1.60;;
62679;SDS011;68213;40.528;44.712;2023-04-20T05:16:10;3.35;;;1.30;;
62679;SDS011;68213;40.528;44.712;2023-04-20T05:17:11;5.53;;;1.38;;
62679;SDS011;68213;40.528;44.712;2023-04-20T05:18:12;5.53;;;1.45;;
62679;SDS011;68213;40.528;44.712;2023-04-20T05:19:13;4.60;;;1.55;;
62679;SDS011;68213;40.528;44.712;2023-04-20T05:20:13;6.57;;;1.90;;
62679;SDS011;68213;40.528;44.712;2023-04-20T05:21:15;3.90;;;1.80;;
62679;SDS011;68213;40.528;44.712;2023-04-20T05:22:15;8.82;;;1.88;;
62679;SDS011;68213;40.528;44.712;2023-04-20T05:23:16;5.55;;;1.60;;
62679;SDS011;68213;40.528;44.712;2023-04-20T05:24:17;4.18;;;1.85;;
62679;SDS011;68213;40.528;44.712;2023-04-20T05:25:18;6.80;;;1.65;;
62679;SDS011;68213;40.528;44.712;2023-04-20T05:26:20;4.00;;;1.67;;
62679;SDS011;68213;40.528;44.712;2023-04-20T05:27:21;11.82;;;1.80;;
62679;SDS011;68213;40.528;44.712;2023-04-20T05:28:22;6.43;;;1.65;;
62679;SDS011;68213;40.528;44.712;2023-04-20T05:29:22;5.82;;;1.73;;
62679;SDS011;68213;40.528;44.712;2023-04-20T05:30:23;6.30;;;2.05;;
62679;SDS011;68213;40.528;44.712;2023-04-20T05:31:24;10.35;;;1.80;;
62679;SDS011;68213;40.528;44.712;2023-04-20T05:32:25;9.80;;;2.08;;
62679;SDS011;68213;40.528;44.712;2023-04-20T05:33:26;4.90;;;2.20;;
62679;SDS011;68213;40.528;44.712;2023-04-20T05:34:29;8.63;;;2.30;;
62679;SDS011;68213;40.528;44.712;2023-04-20T05:35:30;4.97;;;1.98;;
62679;SDS011;68213;40.528;44.712;2023-04-20T05:36:31;7.10;;;1.80;;
62679;SDS011;68213;40.528;44.712;2023-04-20T05:37:32;6.55;;;1.77;;
62679;SDS011;68213;40.528;44.712;2023-04-20T05:38:33;6.93;;;1.77;;
62679;SDS011;68213;40.528;44.712;2023-04-20T05:39:34;8.07;;;1.73;;
62679;SDS011;68213;40.528;44.712;2023-04-20T05:40:34;4.18;;;1.55;;
62679;SDS011;68213;40.528;44.712;2023-04-20T05:41:35;3.25;;;1.30;;
62679;SDS011;68213;40.528;44.712;2023-04-20T05:42:36;9.63;;;2.58;;
62679;SDS011;68213;40.528;44.712;2023-04-20T05:43:37;7.55;;;1.90;;
62679;SDS011;68213;40.528;44.712;2023-04-20T05:44:38;3.40;;;1.55;;
62679;SDS011;68213;40.528;44.712;2023-04-20T05:45:41;2.83;;;1.35;;
62679;SDS011;68213;40.528;44.712;2023-04-20T05:46:42;5.50;;;1.77;;
62679;SDS011;68213;40.528;44.712;2023-04-20T05:47:50;5.55;;;1.60;;
62679;SDS011;68213;40.528;44.712;2023-04-20T05:48:55;4.00;;;1.77;;
62679;SDS011;68213;40.528;44.712;2023-04-20T05:49:56;5.32;;;1.60;;
62679;SDS011;68213;40.528;44.712;2023-04-20T05:50:56;6.60;;;1.67;;
62679;SDS011;68213;40.528;44.712;2023-04-20T05:51:57;6.00;;;1.98;;
62679;SDS011;68213;40.528;44.712;2023-04-20T05:52:58;6.22;;;1.50;;
62679;SDS011;68213;40.528;44.712;2023-04-20T05:53:59;7.63;;;1.80;;
62679;SDS011;68213;40.528;44.712;2023-04-20T05:55:00;3.92;;;1.63;;
62679;SDS011;68213;40.528;44.712;2023-04-20T05:56:01;6.13;;;1.70;;
62679;SDS011;68213;40.528;44.712;2023-04-20T05:57:02;7.28;;;2.30;;
62679;SDS011;68213;40.528;44.712;2023-04-20T05:58:04;5.63;;;2.03;;
62679;SDS011;68213;40.528;44.712;2023-04-20T05:59:05;6.45;;;1.70;;
62679;SDS011;68213;40.528;44.712;2023-04-20T06:00:15;4.78;;;1.65;;
62679;SDS011;68213;40.528;44.712;2023-04-20T06:01:17;7.05;;;1.80;;
62679;SDS011;68213;40.528;44.712;2023-04-20T06:02:17;5.78;;;1.90;;
62679;SDS011;68213;40.528;44.712;2023-04-20T06:03:18;3.95;;;1.80;;
62679;SDS011;68213;40.528;44.712;2023-04-20T06:04:19;5.97;;;2.20;;